Yalesville, Connecticut
Current Conditions -  °F | °C
As of 12:53 PM on Tuesday 21 Oct 2014 (Local Time) from KMMK Reporting Station
Overcast Overcast  
Wind Chill: 64°   Ceiling: 4200
Heat Index: 64°   Visibility: 10mi
Dew Point: 48°   Wind: 5mph
Humidity: 56%   Direction: 360°N
Pressure: 29.89"   Gusts: NA
Location:  41.4596°N, 72.818°W
Report Text: KMMK 211653Z AUTO 36004KT 10SM BKN042 OVC075 18/09 A2989 RMK AO2 SLP122 T01780089 TSNO $
Loading
Personal Weather Stations






























Interactive Weather Map New forecast layout! Learn more

10-Day Weather Forecast

Advertisements
Track Severe Weather on mobile